sensor_id;sensor_type;location;lat;lon;timestamp;P1;durP1;ratioP1;P2;durP2;ratioP2
76403;SDS011;65232;48.358;2.122;2023-04-10T00:00:02;7.15;;;4.90;;
76403;SDS011;65232;48.358;2.122;2023-04-10T00:00:30;7.25;;;5.40;;
76403;SDS011;65232;48.358;2.122;2023-04-10T00:00:55;8.73;;;5.55;;
76403;SDS011;65232;48.358;2.122;2023-04-10T00:01:21;6.85;;;5.32;;
76403;SDS011;65232;48.358;2.122;2023-04-10T00:01:47;9.63;;;5.00;;
76403;SDS011;65232;48.358;2.122;2023-04-10T00:02:12;8.40;;;5.47;;
76403;SDS011;65232;48.358;2.122;2023-04-10T00:02:38;6.88;;;5.28;;
76403;SDS011;65232;48.358;2.122;2023-04-10T00:03:03;8.77;;;5.60;;
76403;SDS011;65232;48.358;2.122;2023-04-10T00:03:29;6.97;;;5.35;;
76403;SDS011;65232;48.358;2.122;2023-04-10T00:03:55;8.57;;;5.55;;
76403;SDS011;65232;48.358;2.122;2023-04-10T00:04:20;8.82;;;5.55;;
76403;SDS011;65232;48.358;2.122;2023-04-10T00:04:46;9.30;;;5.38;;
76403;SDS011;65232;48.358;2.122;2023-04-10T00:05:11;8.60;;;5.68;;
76403;SDS011;65232;48.358;2.122;2023-04-10T00:05:36;7.47;;;5.13;;
76403;SDS011;65232;48.358;2.122;2023-04-10T00:06:02;7.50;;;5.22;;
76403;SDS011;65232;48.358;2.122;2023-04-10T00:06:28;11.15;;;5.25;;
76403;SDS011;65232;48.358;2.122;2023-04-10T00:06:53;9.75;;;5.60;;
76403;SDS011;65232;48.358;2.122;2023-04-10T00:07:19;9.90;;;5.57;;
76403;SDS011;65232;48.358;2.122;2023-04-10T00:07:45;12.25;;;5.40;;
76403;SDS011;65232;48.358;2.122;2023-04-10T00:08:10;8.48;;;5.68;;
76403;SDS011;65232;48.358;2.122;2023-04-10T00:08:36;9.75;;;5.82;;
76403;SDS011;65232;48.358;2.122;2023-04-10T00:09:01;11.35;;;5.28;;
76403;SDS011;65232;48.358;2.122;2023-04-10T00:09:26;8.07;;;5.88;;
76403;SDS011;65232;48.358;2.122;2023-04-10T00:09:53;8.07;;;5.43;;
76403;SDS011;65232;48.358;2.122;2023-04-10T00:10:19;10.70;;;5.75;;
76403;SDS011;65232;48.358;2.122;2023-04-10T00:10:44;10.52;;;5.78;;
76403;SDS011;65232;48.358;2.122;2023-04-10T00:11:10;10.07;;;6.45;;
76403;SDS011;65232;48.358;2.122;2023-04-10T00:11:35;12.70;;;7.20;;
76403;SDS011;65232;48.358;2.122;2023-04-10T00:12:00;15.15;;;8.82;;
76403;SDS011;65232;48.358;2.122;2023-04-10T00:12:26;14.85;;;8.75;;
76403;SDS011;65232;48.358;2.122;2023-04-10T00:12:51;16.70;;;8.73;;
76403;SDS011;65232;48.358;2.122;2023-04-10T00:13:18;17.75;;;9.82;;
76403;SDS011;65232;48.358;2.122;2023-04-10T00:13:43;17.98;;;9.70;;
76403;SDS011;65232;48.358;2.122;2023-04-10T00:14:08;19.50;;;9.55;;
76403;SDS011;65232;48.358;2.122;2023-04-10T00:14:34;18.55;;;9.50;;
76403;SDS011;65232;48.358;2.122;2023-04-10T00:14:59;16.73;;;9.10;;
76403;SDS011;65232;48.358;2.122;2023-04-10T00:15:25;13.93;;;8.38;;
76403;SDS011;65232;48.358;2.122;2023-04-10T00:15:50;15.55;;;8.80;;
76403;SDS011;65232;48.358;2.122;2023-04-10T00:16:16;17.13;;;9.15;;
76403;SDS011;65232;48.358;2.122;2023-04-10T00:16:41;13.60;;;8.38;;
76403;SDS011;65232;48.358;2.122;2023-04-10T00:17:06;13.90;;;8.45;;
76403;SDS011;65232;48.358;2.122;2023-04-10T00:17:32;14.35;;;7.82;;
76403;SDS011;65232;48.358;2.122;2023-04-10T00:17:57;13.32;;;8.00;;
76403;SDS011;65232;48.358;2.122;2023-04-10T00:18:23;14.65;;;8.05;;
76403;SDS011;65232;48.358;2.122;2023-04-10T00:18:48;15.35;;;7.97;;
76403;SDS011;65232;48.358;2.122;2023-04-10T00:19:14;13.13;;;7.35;;
76403;SDS011;65232;48.358;2.122;2023-04-10T00:19:39;11.50;;;7.03;;
76403;SDS011;65232;48.358;2.122;2023-04-10T00:20:05;11.40;;;6.50;;
76403;SDS011;65232;48.358;2.122;2023-04-10T00:20:31;10.80;;;6.07;;
76403;SDS011;65232;48.358;2.122;2023-04-10T00:20:56;11.93;;;6.45;;
76403;SDS011;65232;48.358;2.122;2023-04-10T00:21:21;8.48;;;6.25;;
76403;SDS011;65232;48.358;2.122;2023-04-10T00:21:47;9.85;;;6.45;;
76403;SDS011;65232;48.358;2.122;2023-04-10T00:22:12;10.23;;;6.03;;
76403;SDS011;65232;48.358;2.122;2023-04-10T00:22:38;10.00;;;6.70;;
76403;SDS011;65232;48.358;2.122;2023-04-10T00:23:03;13.93;;;6.85;;
76403;SDS011;65232;48.358;2.122;2023-04-10T00:23:29;12.25;;;6.63;;
76403;SDS011;65232;48.358;2.122;2023-04-10T00:23:56;9.27;;;6.50;;
76403;SDS011;65232;48.358;2.122;2023-04-10T00:24:22;12.57;;;6.80;;
76403;SDS011;65232;48.358;2.122;2023-04-10T00:24:47;9.38;;;6.22;;
76403;SDS011;65232;48.358;2.122;2023-04-10T00:25:12;8.40;;;6.20;;
76403;SDS011;65232;48.358;2.122;2023-04-10T00:25:38;9.82;;;6.50;;
76403;SDS011;65232;48.358;2.122;2023-04-10T00:26:03;10.45;;;6.75;;
76403;SDS011;65232;48.358;2.122;2023-04-10T00:26:29;10.65;;;6.43;;
76403;SDS011;65232;48.358;2.122;2023-04-10T00:26:54;9.85;;;6.20;;
76403;SDS011;65232;48.358;2.122;2023-04-10T00:27:21;9.23;;;6.22;;
76403;SDS011;65232;48.358;2.122;2023-04-10T00:27:47;10.35;;;6.35;;
76403;SDS011;65232;48.358;2.122;2023-04-10T00:28:13;9.60;;;6.00;;
76403;SDS011;65232;48.358;2.122;2023-04-10T00:28:39;9.68;;;6.25;;
76403;SDS011;65232;48.358;2.122;2023-04-10T00:29:05;9.43;;;5.80;;
76403;SDS011;65232;48.358;2.122;2023-04-10T00:29:30;11.10;;;6.15;;
76403;SDS011;65232;48.358;2.122;2023-04-10T00:29:56;9.32;;;6.13;;
76403;SDS011;65232;48.358;2.122;2023-04-10T00:30:21;8.27;;;6.00;;
76403;SDS011;65232;48.358;2.122;2023-04-10T00:30:47;9.55;;;6.47;;
76403;SDS011;65232;48.358;2.122;2023-04-10T00:31:12;10.65;;;6.28;;
76403;SDS011;65232;48.358;2.122;2023-04-10T00:31:38;8.45;;;5.72;;
76403;SDS011;65232;48.358;2.122;2023-04-10T00:32:03;8.70;;;5.78;;
76403;SDS011;65232;48.358;2.122;2023-04-10T00:32:29;8.68;;;5.75;;
76403;SDS011;65232;48.358;2.122;2023-04-10T00:32:54;9.52;;;5.65;;
76403;SDS011;65232;48.358;2.122;2023-04-10T00:33:20;10.15;;;6.05;;
76403;SDS011;65232;48.358;2.122;2023-04-10T00:33:45;7.72;;;5.80;;
76403;SDS011;65232;48.358;2.122;2023-04-10T00:34:11;10.15;;;5.72;;
76403;SDS011;65232;48.358;2.122;2023-04-10T00:34:38;7.93;;;5.32;;
76403;SDS011;65232;48.358;2.122;2023-04-10T00:35:03;8.80;;;5.68;;
76403;SDS011;65232;48.358;2.122;2023-04-10T00:35:29;8.85;;;5.22;;
76403;SDS011;65232;48.358;2.122;2023-04-10T00:35:54;8.07;;;5.25;;
76403;SDS011;65232;48.358;2.122;2023-04-10T00:36:20;9.30;;;5.75;;
76403;SDS011;65232;48.358;2.122;2023-04-10T00:36:45;10.27;;;5.97;;
76403;SDS011;65232;48.358;2.122;2023-04-10T00:37:13;9.43;;;5.90;;
76403;SDS011;65232;48.358;2.122;2023-04-10T00:37:39;8.07;;;5.43;;
76403;SDS011;65232;48.358;2.122;2023-04-10T00:38:05;8.98;;;5.55;;
76403;SDS011;65232;48.358;2.122;2023-04-10T00:38:30;8.57;;;5.60;;
76403;SDS011;65232;48.358;2.122;2023-04-10T00:38:55;8.32;;;5.13;;
76403;SDS011;65232;48.358;2.122;2023-04-10T00:39:21;10.35;;;6.10;;
76403;SDS011;65232;48.358;2.122;2023-04-10T00:39:47;8.93;;;6.55;;
76403;SDS011;65232;48.358;2.122;2023-04-10T00:40:12;9.10;;;6.40;;
76403;SDS011;65232;48.358;2.122;2023-04-10T00:40:38;6.35;;;5.25;;
76403;SDS011;65232;48.358;2.122;2023-04-10T00:41:03;7.10;;;5.22;;
76403;SDS011;65232;48.358;2.122;2023-04-10T00:41:29;8.35;;;5.57;;
76403;SDS011;65232;48.358;2.122;2023-04-10T00:41:55;7.75;;;5.28;;
76403;SDS011;65232;48.358;2.122;2023-04-10T00:42:21;8.65;;;5.28;;
76403;SDS011;65232;48.358;2.122;2023-04-10T00:42:47;7.47;;;5.28;;
76403;SDS011;65232;48.358;2.122;2023-04-10T00:43:12;11.40;;;5.68;;
76403;SDS011;65232;48.358;2.122;2023-04-10T00:43:38;8.65;;;5.95;;
76403;SDS011;65232;48.358;2.122;2023-04-10T00:44:03;11.40;;;6.00;;
76403;SDS011;65232;48.358;2.122;2023-04-10T00:44:28;10.38;;;6.20;;
76403;SDS011;65232;48.358;2.122;2023-04-10T00:44:54;11.55;;;6.25;;
76403;SDS011;65232;48.358;2.122;2023-04-10T00:45:19;8.90;;;6.38;;
76403;SDS011;65232;48.358;2.122;2023-04-10T00:45:45;11.68;;;6.60;;
76403;SDS011;65232;48.358;2.122;2023-04-10T00:46:10;12.32;;;6.90;;
76403;SDS011;65232;48.358;2.122;2023-04-10T00:46:36;11.35;;;7.05;;
76403;SDS011;65232;48.358;2.122;2023-04-10T00:47:03;13.63;;;6.63;;
76403;SDS011;65232;48.358;2.122;2023-04-10T00:47:30;14.68;;;6.60;;
76403;SDS011;65232;48.358;2.122;2023-04-10T00:47:56;14.50;;;7.30;;
76403;SDS011;65232;48.358;2.122;2023-04-10T00:48:21;15.23;;;8.00;;
76403;SDS011;65232;48.358;2.122;2023-04-10T00:48:47;13.85;;;7.63;;
76403;SDS011;65232;48.358;2.122;2023-04-10T00:49:12;10.63;;;6.85;;
76403;SDS011;65232;48.358;2.122;2023-04-10T00:49:38;12.63;;;7.13;;
76403;SDS011;65232;48.358;2.122;2023-04-10T00:50:05;13.95;;;6.60;;
76403;SDS011;65232;48.358;2.122;2023-04-10T00:50:31;13.25;;;7.45;;
76403;SDS011;65232;48.358;2.122;2023-04-10T00:50:57;10.60;;;6.97;;
76403;SDS011;65232;48.358;2.122;2023-04-10T00:51:22;13.27;;;7.00;;
76403;SDS011;65232;48.358;2.122;2023-04-10T00:51:48;11.18;;;6.95;;
76403;SDS011;65232;48.358;2.122;2023-04-10T00:52:13;11.60;;;6.75;;
76403;SDS011;65232;48.358;2.122;2023-04-10T00:52:39;10.15;;;6.70;;
76403;SDS011;65232;48.358;2.122;2023-04-10T00:53:04;10.25;;;6.30;;
76403;SDS011;65232;48.358;2.122;2023-04-10T00:53:30;8.57;;;6.25;;
76403;SDS011;65232;48.358;2.122;2023-04-10T00:53:56;11.57;;;5.75;;
76403;SDS011;65232;48.358;2.122;2023-04-10T00:54:24;8.88;;;5.95;;
76403;SDS011;65232;48.358;2.122;2023-04-10T00:54:51;8.07;;;5.78;;
76403;SDS011;65232;48.358;2.122;2023-04-10T00:55:16;7.25;;;5.45;;
76403;SDS011;65232;48.358;2.122;2023-04-10T00:55:42;6.28;;;5.00;;
76403;SDS011;65232;48.358;2.122;2023-04-10T00:56:09;5.95;;;4.90;;
76403;SDS011;65232;48.358;2.122;2023-04-10T00:56:35;8.63;;;5.07;;
76403;SDS011;65232;48.358;2.122;2023-04-10T00:57:27;6.40;;;4.72;;
76403;SDS011;65232;48.358;2.122;2023-04-10T00:57:53;8.07;;;5.18;;
76403;SDS011;65232;48.358;2.122;2023-04-10T00:58:20;10.40;;;5.78;;
76403;SDS011;65232;48.358;2.122;2023-04-10T00:58:46;9.27;;;5.72;;
76403;SDS011;65232;48.358;2.122;2023-04-10T00:59:11;5.63;;;4.63;;
76403;SDS011;65232;48.358;2.122;2023-04-10T00:59:37;7.25;;;5.07;;
76403;SDS011;65232;48.358;2.122;2023-04-10T01:00:03;6.35;;;4.85;;
76403;SDS011;65232;48.358;2.122;2023-04-10T01:00:29;6.78;;;4.97;;
76403;SDS011;65232;48.358;2.122;2023-04-10T01:00:54;6.68;;;5.32;;
76403;SDS011;65232;48.358;2.122;2023-04-10T01:01:20;7.45;;;5.25;;
76403;SDS011;65232;48.358;2.122;2023-04-10T01:01:46;6.60;;;5.30;;
76403;SDS011;65232;48.358;2.122;2023-04-10T01:02:11;9.75;;;5.28;;
76403;SDS011;65232;48.358;2.122;2023-04-10T01:02:37;7.38;;;5.35;;
76403;SDS011;65232;48.358;2.122;2023-04-10T01:03:02;8.65;;;5.35;;
76403;SDS011;65232;48.358;2.122;2023-04-10T01:03:28;7.75;;;4.97;;
76403;SDS011;65232;48.358;2.122;2023-04-10T01:03:53;8.93;;;5.28;;
76403;SDS011;65232;48.358;2.122;2023-04-10T01:04:20;6.40;;;5.10;;
76403;SDS011;65232;48.358;2.122;2023-04-10T01:04:46;7.13;;;5.32;;
76403;SDS011;65232;48.358;2.122;2023-04-10T01:05:12;8.35;;;4.90;;
76403;SDS011;65232;48.358;2.122;2023-04-10T01:05:41;7.25;;;5.32;;
76403;SDS011;65232;48.358;2.122;2023-04-10T01:08:22;6.00;;;4.53;;
76403;SDS011;65232;48.358;2.122;2023-04-10T01:09:43;7.85;;;5.05;;
76403;SDS011;65232;48.358;2.122;2023-04-10T01:10:49;6.53;;;4.78;;
76403;SDS011;65232;48.358;2.122;2023-04-10T01:13:15;9.13;;;5.40;;
76403;SDS011;65232;48.358;2.122;2023-04-10T01:13:51;7.85;;;5.47;;
76403;SDS011;65232;48.358;2.122;2023-04-10T01:15:26;11.95;;;5.18;;
76403;SDS011;65232;48.358;2.122;2023-04-10T01:16:00;8.75;;;5.03;;
76403;SDS011;65232;48.358;2.122;2023-04-10T01:16:37;8.35;;;5.07;;
76403;SDS011;65232;48.358;2.122;2023-04-10T01:17:27;7.95;;;5.22;;
76403;SDS011;65232;48.358;2.122;2023-04-10T01:19:06;7.80;;;4.90;;
76403;SDS011;65232;48.358;2.122;2023-04-10T01:20:37;6.75;;;4.55;;
76403;SDS011;65232;48.358;2.122;2023-04-10T01:21:04;7.95;;;5.05;;
76403;SDS011;65232;48.358;2.122;2023-04-10T01:21:33;9.13;;;4.93;;
76403;SDS011;65232;48.358;2.122;2023-04-10T01:22:01;10.05;;;4.90;;
76403;SDS011;65232;48.358;2.122;2023-04-10T01:22:37;7.20;;;5.07;;
76403;SDS011;65232;48.358;2.122;2023-04-10T01:24:05;8.52;;;4.70;;
76403;SDS011;65232;48.358;2.122;2023-04-10T01:26:05;5.53;;;4.07;;
76403;SDS011;65232;48.358;2.122;2023-04-10T01:28:10;5.05;;;4.20;;
76403;SDS011;65232;48.358;2.122;2023-04-10T01:28:39;5.10;;;3.88;;
76403;SDS011;65232;48.358;2.122;2023-04-10T01:29:09;6.32;;;4.35;;
76403;SDS011;65232;48.358;2.122;2023-04-10T01:29:44;7.38;;;4.80;;
76403;SDS011;65232;48.358;2.122;2023-04-10T01:30:15;6.72;;;4.78;;
76403;SDS011;65232;48.358;2.122;2023-04-10T01:30:52;6.60;;;4.85;;
76403;SDS011;65232;48.358;2.122;2023-04-10T01:31:36;8.35;;;5.22;;
76403;SDS011;65232;48.358;2.122;2023-04-10T01:32:10;6.18;;;4.72;;
76403;SDS011;65232;48.358;2.122;2023-04-10T01:32:38;6.63;;;4.50;;
76403;SDS011;65232;48.358;2.122;2023-04-10T01:33:05;6.32;;;4.40;;
76403;SDS011;65232;48.358;2.122;2023-04-10T01:33:38;8.25;;;5.20;;
76403;SDS011;65232;48.358;2.122;2023-04-10T01:34:08;10.23;;;5.35;;
76403;SDS011;65232;48.358;2.122;2023-04-10T01:35:11;7.07;;;5.03;;
76403;SDS011;65232;48.358;2.122;2023-04-10T01:35:40;6.60;;;4.90;;
76403;SDS011;65232;48.358;2.122;2023-04-10T01:36:08;7.22;;;4.93;;
76403;SDS011;65232;48.358;2.122;2023-04-10T01:36:39;8.13;;;5.07;;
76403;SDS011;65232;48.358;2.122;2023-04-10T01:37:15;10.15;;;5.28;;
76403;SDS011;65232;48.358;2.122;2023-04-10T01:37:44;7.05;;;4.65;;
76403;SDS011;65232;48.358;2.122;2023-04-10T01:38:18;7.88;;;5.18;;
76403;SDS011;65232;48.358;2.122;2023-04-10T01:38:45;6.35;;;4.80;;
76403;SDS011;65232;48.358;2.122;2023-04-10T01:39:13;10.05;;;5.93;;
76403;SDS011;65232;48.358;2.122;2023-04-10T01:39:41;8.27;;;5.85;;
76403;SDS011;65232;48.358;2.122;2023-04-10T01:40:08;7.43;;;5.50;;
76403;SDS011;65232;48.358;2.122;2023-04-10T01:40:36;7.90;;;5.70;;
76403;SDS011;65232;48.358;2.122;2023-04-10T01:41:04;9.30;;;6.00;;
76403;SDS011;65232;48.358;2.122;2023-04-10T01:41:31;7.80;;;5.78;;
76403;SDS011;65232;48.358;2.122;2023-04-10T01:41:59;10.20;;;6.18;;
76403;SDS011;65232;48.358;2.122;2023-04-10T01:42:37;11.80;;;5.90;;
76403;SDS011;65232;48.358;2.122;2023-04-10T01:43:07;8.43;;;5.72;;
76403;SDS011;65232;48.358;2.122;2023-04-10T01:43:42;8.52;;;5.75;;
76403;SDS011;65232;48.358;2.122;2023-04-10T01:44:12;8.13;;;6.32;;
76403;SDS011;65232;48.358;2.122;2023-04-10T01:44:40;7.00;;;5.30;;
76403;SDS011;65232;48.358;2.122;2023-04-10T01:45:08;7.85;;;5.38;;
76403;SDS011;65232;48.358;2.122;2023-04-10T01:45:39;7.97;;;5.68;;
76403;SDS011;65232;48.358;2.122;2023-04-10T01:46:06;8.73;;;5.72;;
76403;SDS011;65232;48.358;2.122;2023-04-10T01:46:31;8.10;;;5.88;;
76403;SDS011;65232;48.358;2.122;2023-04-10T01:46:57;8.48;;;6.15;;
76403;SDS011;65232;48.358;2.122;2023-04-10T01:47:24;8.85;;;5.88;;
76403;SDS011;65232;48.358;2.122;2023-04-10T01:47:51;7.72;;;5.97;;
76403;SDS011;65232;48.358;2.122;2023-04-10T01:48:44;7.90;;;5.20;;
76403;SDS011;65232;48.358;2.122;2023-04-10T01:49:11;6.88;;;5.53;;
76403;SDS011;65232;48.358;2.122;2023-04-10T01:49:37;8.52;;;5.45;;
76403;SDS011;65232;48.358;2.122;2023-04-10T01:50:08;7.63;;;5.47;;
76403;SDS011;65232;48.358;2.122;2023-04-10T01:50:36;6.38;;;4.97;;
76403;SDS011;65232;48.358;2.122;2023-04-10T01:51:02;10.15;;;5.53;;
76403;SDS011;65232;48.358;2.122;2023-04-10T01:51:31;8.52;;;5.25;;
76403;SDS011;65232;48.358;2.122;2023-04-10T01:51:59;7.85;;;5.45;;
76403;SDS011;65232;48.358;2.122;2023-04-10T01:52:27;7.38;;;5.45;;
76403;SDS011;65232;48.358;2.122;2023-04-10T01:53:05;7.50;;;5.60;;
76403;SDS011;65232;48.358;2.122;2023-04-10T01:53:32;7.13;;;5.18;;
76403;SDS011;65232;48.358;2.122;2023-04-10T01:54:00;7.22;;;5.22;;
76403;SDS011;65232;48.358;2.122;2023-04-10T01:54:26;7.78;;;5.43;;
76403;SDS011;65232;48.358;2.122;2023-04-10T01:54:53;7.97;;;5.70;;
76403;SDS011;65232;48.358;2.122;2023-04-10T01:55:24;11.80;;;5.30;;
76403;SDS011;65232;48.358;2.122;2023-04-10T01:56:00;7.05;;;5.18;;
76403;SDS011;65232;48.358;2.122;2023-04-10T01:56:27;7.97;;;5.32;;
76403;SDS011;65232;48.358;2.122;2023-04-10T01:56:53;7.07;;;5.40;;
76403;SDS011;65232;48.358;2.122;2023-04-10T01:57:20;5.88;;;5.25;;
76403;SDS011;65232;48.358;2.122;2023-04-10T01:57:55;7.25;;;5.53;;
76403;SDS011;65232;48.358;2.122;2023-04-10T01:58:22;8.85;;;5.30;;
76403;SDS011;65232;48.358;2.122;2023-04-10T01:58:51;8.77;;;5.43;;
76403;SDS011;65232;48.358;2.122;2023-04-10T01:59:17;7.28;;;5.35;;
76403;SDS011;65232;48.358;2.122;2023-04-10T01:59:43;7.60;;;5.55;;
76403;SDS011;65232;48.358;2.122;2023-04-10T02:00:08;7.15;;;5.57;;
76403;SDS011;65232;48.358;2.122;2023-04-10T02:00:40;8.95;;;5.88;;
76403;SDS011;65232;48.358;2.122;2023-04-10T02:01:07;9.00;;;5.70;;
76403;SDS011;65232;48.358;2.122;2023-04-10T02:01:35;9.25;;;5.65;;
76403;SDS011;65232;48.358;2.122;2023-04-10T02:02:01;9.52;;;5.35;;
76403;SDS011;65232;48.358;2.122;2023-04-10T02:02:32;6.75;;;5.35;;
76403;SDS011;65232;48.358;2.122;2023-04-10T02:02:58;10.57;;;5.78;;
76403;SDS011;65232;48.358;2.122;2023-04-10T02:03:24;8.63;;;6.15;;
76403;SDS011;65232;48.358;2.122;2023-04-10T02:03:49;7.70;;;5.60;;
76403;SDS011;65232;48.358;2.122;2023-04-10T02:04:15;9.80;;;5.25;;
76403;SDS011;65232;48.358;2.122;2023-04-10T02:04:40;7.20;;;5.57;;
76403;SDS011;65232;48.358;2.122;2023-04-10T02:05:06;6.88;;;4.97;;
76403;SDS011;65232;48.358;2.122;2023-04-10T02:05:33;7.53;;;5.13;;
76403;SDS011;65232;48.358;2.122;2023-04-10T02:06:28;6.85;;;4.90;;
76403;SDS011;65232;48.358;2.122;2023-04-10T02:07:03;6.05;;;4.95;;
76403;SDS011;65232;48.358;2.122;2023-04-10T02:08:35;8.40;;;5.72;;
76403;SDS011;65232;48.358;2.122;2023-04-10T02:09:14;9.88;;;5.55;;
76403;SDS011;65232;48.358;2.122;2023-04-10T02:09:47;8.18;;;5.10;;
76403;SDS011;65232;48.358;2.122;2023-04-10T02:10:21;10.70;;;5.20;;
76403;SDS011;65232;48.358;2.122;2023-04-10T02:11:33;6.93;;;5.32;;
76403;SDS011;65232;48.358;2.122;2023-04-10T02:12:22;5.75;;;4.53;;
76403;SDS011;65232;48.358;2.122;2023-04-10T02:12:58;6.85;;;4.55;;
76403;SDS011;65232;48.358;2.122;2023-04-10T02:13:25;6.72;;;4.90;;
76403;SDS011;65232;48.358;2.122;2023-04-10T02:13:53;7.45;;;4.47;;
76403;SDS011;65232;48.358;2.122;2023-04-10T02:14:24;8.00;;;5.55;;
76403;SDS011;65232;48.358;2.122;2023-04-10T02:14:53;7.72;;;5.30;;
76403;SDS011;65232;48.358;2.122;2023-04-10T02:15:20;6.95;;;5.15;;
76403;SDS011;65232;48.358;2.122;2023-04-10T02:15:47;8.30;;;5.05;;
76403;SDS011;65232;48.358;2.122;2023-04-10T02:16:14;7.32;;;5.07;;
76403;SDS011;65232;48.358;2.122;2023-04-10T02:16:45;7.22;;;5.30;;
76403;SDS011;65232;48.358;2.122;2023-04-10T02:17:13;6.03;;;4.50;;
76403;SDS011;65232;48.358;2.122;2023-04-10T02:17:42;6.68;;;5.03;;
76403;SDS011;65232;48.358;2.122;2023-04-10T02:18:09;7.57;;;4.85;;
76403;SDS011;65232;48.358;2.122;2023-04-10T02:19:01;6.13;;;4.38;;
76403;SDS011;65232;48.358;2.122;2023-04-10T02:19:29;8.60;;;5.18;;
76403;SDS011;65232;48.358;2.122;2023-04-10T02:19:56;7.15;;;4.35;;
76403;SDS011;65232;48.358;2.122;2023-04-10T02:20:23;9.65;;;5.18;;
76403;SDS011;65232;48.358;2.122;2023-04-10T02:20:49;7.35;;;5.28;;
76403;SDS011;65232;48.358;2.122;2023-04-10T02:21:14;8.23;;;4.93;;
76403;SDS011;65232;48.358;2.122;2023-04-10T02:21:41;9.30;;;5.13;;
76403;SDS011;65232;48.358;2.122;2023-04-10T02:22:07;6.85;;;5.20;;
76403;SDS011;65232;48.358;2.122;2023-04-10T02:22:33;6.97;;;5.22;;
76403;SDS011;65232;48.358;2.122;2023-04-10T02:23:00;8.27;;;5.03;;
76403;SDS011;65232;48.358;2.122;2023-04-10T02:23:27;8.15;;;5.18;;
76403;SDS011;65232;48.358;2.122;2023-04-10T02:23:55;6.30;;;5.07;;
76403;SDS011;65232;48.358;2.122;2023-04-10T02:24:22;8.38;;;5.22;;
76403;SDS011;65232;48.358;2.122;2023-04-10T02:24:48;7.82;;;4.80;;
76403;SDS011;65232;48.358;2.122;2023-04-10T02:25:13;9.80;;;6.00;;
76403;SDS011;65232;48.358;2.122;2023-04-10T02:25:40;7.70;;;5.65;;
76403;SDS011;65232;48.358;2.122;2023-04-10T02:26:08;10.52;;;6.68;;
76403;SDS011;65232;48.358;2.122;2023-04-10T02:26:47;11.95;;;6.85;;
76403;SDS011;65232;48.358;2.122;2023-04-10T02:27:15;9.98;;;5.97;;
76403;SDS011;65232;48.358;2.122;2023-04-10T02:27:50;8.13;;;5.50;;
76403;SDS011;65232;48.358;2.122;2023-04-10T02:28:16;8.10;;;5.85;;
76403;SDS011;65232;48.358;2.122;2023-04-10T02:28:41;6.35;;;5.35;;
76403;SDS011;65232;48.358;2.122;2023-04-10T02:29:06;10.50;;;6.20;;
76403;SDS011;65232;48.358;2.122;2023-04-10T02:30:01;12.50;;;7.43;;
76403;SDS011;65232;48.358;2.122;2023-04-10T02:30:29;14.77;;;6.80;;
76403;SDS011;65232;48.358;2.122;2023-04-10T02:30:54;10.27;;;5.88;;
76403;SDS011;65232;48.358;2.122;2023-04-10T02:31:20;8.82;;;6.30;;
76403;SDS011;65232;48.358;2.122;2023-04-10T02:31:46;9.30;;;5.72;;
76403;SDS011;65232;48.358;2.122;2023-04-10T02:32:13;9.45;;;6.32;;
76403;SDS011;65232;48.358;2.122;2023-04-10T02:32:40;20.85;;;10.25;;
76403;SDS011;65232;48.358;2.122;2023-04-10T02:33:06;20.30;;;11.25;;
76403;SDS011;65232;48.358;2.122;2023-04-10T02:33:32;19.25;;;10.20;;
76403;SDS011;65232;48.358;2.122;2023-04-10T02:33:57;15.80;;;9.35;;
76403;SDS011;65232;48.358;2.122;2023-04-10T02:34:23;11.80;;;6.97;;
76403;SDS011;65232;48.358;2.122;2023-04-10T02:34:48;9.88;;;6.05;;
76403;SDS011;65232;48.358;2.122;2023-04-10T02:35:14;10.75;;;6.45;;
76403;SDS011;65232;48.358;2.122;2023-04-10T02:35:39;13.57;;;6.60;;
76403;SDS011;65232;48.358;2.122;2023-04-10T02:36:06;9.13;;;6.43;;
76403;SDS011;65232;48.358;2.122;2023-04-10T02:36:32;15.10;;;7.90;;
76403;SDS011;65232;48.358;2.122;2023-04-10T02:36:59;16.13;;;8.38;;
76403;SDS011;65232;48.358;2.122;2023-04-10T02:37:28;12.48;;;7.15;;
76403;SDS011;65232;48.358;2.122;2023-04-10T02:37:53;9.43;;;5.85;;
76403;SDS011;65232;48.358;2.122;2023-04-10T02:38:19;6.72;;;5.38;;
76403;SDS011;65232;48.358;2.122;2023-04-10T02:38:44;7.32;;;5.45;;
76403;SDS011;65232;48.358;2.122;2023-04-10T02:39:11;7.95;;;5.22;;
76403;SDS011;65232;48.358;2.122;2023-04-10T02:39:45;6.47;;;4.65;;
76403;SDS011;65232;48.358;2.122;2023-04-10T02:40:10;9.30;;;5.93;;
76403;SDS011;65232;48.358;2.122;2023-04-10T02:40:44;14.30;;;7.20;;
76403;SDS011;65232;48.358;2.122;2023-04-10T02:41:12;17.08;;;8.15;;
76403;SDS011;65232;48.358;2.122;2023-04-10T02:41:37;8.65;;;5.40;;
76403;SDS011;65232;48.358;2.122;2023-04-10T02:42:03;10.38;;;5.97;;
76403;SDS011;65232;48.358;2.122;2023-04-10T02:42:29;10.95;;;6.00;;
76403;SDS011;65232;48.358;2.122;2023-04-10T02:42:57;10.75;;;5.57;;
76403;SDS011;65232;48.358;2.122;2023-04-10T02:43:23;8.27;;;5.25;;
76403;SDS011;65232;48.358;2.122;2023-04-10T02:43:48;16.40;;;6.93;;
76403;SDS011;65232;48.358;2.122;2023-04-10T02:44:16;9.93;;;5.63;;
76403;SDS011;65232;48.358;2.122;2023-04-10T02:44:43;12.52;;;7.50;;
76403;SDS011;65232;48.358;2.122;2023-04-10T02:45:09;12.13;;;7.20;;
76403;SDS011;65232;48.358;2.122;2023-04-10T02:45:38;11.90;;;7.30;;
76403;SDS011;65232;48.358;2.122;2023-04-10T02:46:05;14.73;;;8.38;;
76403;SDS011;65232;48.358;2.122;2023-04-10T02:46:36;8.57;;;5.97;;
76403;SDS011;65232;48.358;2.122;2023-04-10T02:47:01;13.55;;;6.78;;
76403;SDS011;65232;48.358;2.122;2023-04-10T02:47:29;9.90;;;6.47;;
76403;SDS011;65232;48.358;2.122;2023-04-10T02:47:55;8.43;;;6.00;;
76403;SDS011;65232;48.358;2.122;2023-04-10T02:48:20;9.70;;;6.18;;
76403;SDS011;65232;48.358;2.122;2023-04-10T02:48:51;10.93;;;6.95;;
76403;SDS011;65232;48.358;2.122;2023-04-10T02:49:17;9.93;;;6.80;;
76403;SDS011;65232;48.358;2.122;2023-04-10T02:49:43;10.50;;;6.80;;
76403;SDS011;65232;48.358;2.122;2023-04-10T02:50:12;13.85;;;6.78;;
76403;SDS011;65232;48.358;2.122;2023-04-10T02:50:41;10.57;;;6.47;;
76403;SDS011;65232;48.358;2.122;2023-04-10T02:51:10;9.70;;;6.50;;
76403;SDS011;65232;48.358;2.122;2023-04-10T02:51:35;15.77;;;6.80;;
76403;SDS011;65232;48.358;2.122;2023-04-10T02:52:01;14.95;;;7.55;;
76403;SDS011;65232;48.358;2.122;2023-04-10T02:52:27;16.27;;;7.88;;
76403;SDS011;65232;48.358;2.122;2023-04-10T02:52:52;12.30;;;6.95;;
76403;SDS011;65232;48.358;2.122;2023-04-10T02:53:48;8.65;;;5.65;;
76403;SDS011;65232;48.358;2.122;2023-04-10T02:54:24;13.57;;;7.07;;
76403;SDS011;65232;48.358;2.122;2023-04-10T02:54:49;12.68;;;7.22;;
76403;SDS011;65232;48.358;2.122;2023-04-10T02:55:14;13.90;;;7.55;;
76403;SDS011;65232;48.358;2.122;2023-04-10T02:55:41;15.55;;;8.07;;
76403;SDS011;65232;48.358;2.122;2023-04-10T02:56:06;18.63;;;9.15;;
76403;SDS011;65232;48.358;2.122;2023-04-10T02:56:33;13.68;;;7.90;;
76403;SDS011;65232;48.358;2.122;2023-04-10T02:56:59;14.27;;;7.60;;
76403;SDS011;65232;48.358;2.122;2023-04-10T02:57:25;11.40;;;7.03;;
76403;SDS011;65232;48.358;2.122;2023-04-10T02:57:52;14.45;;;7.18;;
76403;SDS011;65232;48.358;2.122;2023-04-10T02:58:18;19.42;;;8.60;;
76403;SDS011;65232;48.358;2.122;2023-04-10T02:58:43;21.42;;;10.70;;
76403;SDS011;65232;48.358;2.122;2023-04-10T02:59:11;16.25;;;8.98;;
76403;SDS011;65232;48.358;2.122;2023-04-10T02:59:37;10.38;;;6.30;;
76403;SDS011;65232;48.358;2.122;2023-04-10T03:00:04;11.25;;;5.90;;
76403;SDS011;65232;48.358;2.122;2023-04-10T03:00:49;13.38;;;6.60;;
76403;SDS011;65232;48.358;2.122;2023-04-10T03:01:35;13.10;;;6.22;;
76403;SDS011;65232;48.358;2.122;2023-04-10T03:02:03;12.30;;;5.97;;
76403;SDS011;65232;48.358;2.122;2023-04-10T03:02:32;7.85;;;5.45;;